sensor_id;sensor_type;location;lat;lon;timestamp;temperature;humidity
61392;DHT22;47261;52.892;5.738;2023-04-07T00:00:57;9.20;99.90
61392;DHT22;47261;52.892;5.738;2023-04-07T00:03:22;9.20;99.90
61392;DHT22;47261;52.892;5.738;2023-04-07T00:05:48;9.30;99.90
61392;DHT22;47261;52.892;5.738;2023-04-07T00:08:14;9.30;99.90
61392;DHT22;47261;52.892;5.738;2023-04-07T00:10:40;9.30;99.90
61392;DHT22;47261;52.892;5.738;2023-04-07T00:13:05;9.30;99.90
61392;DHT22;47261;52.892;5.738;2023-04-07T00:15:31;9.40;99.90
61392;DHT22;47261;52.892;5.738;2023-04-07T00:17:57;9.40;99.90
61392;DHT22;47261;52.892;5.738;2023-04-07T00:20:22;9.40;99.90
61392;DHT22;47261;52.892;5.738;2023-04-07T00:22:48;9.40;99.90
61392;DHT22;47261;52.892;5.738;2023-04-07T00:25:14;9.40;99.90
61392;DHT22;47261;52.892;5.738;2023-04-07T00:27:40;9.40;99.90
61392;DHT22;47261;52.892;5.738;2023-04-07T00:30:06;9.40;99.90
61392;DHT22;47261;52.892;5.738;2023-04-07T00:32:32;9.40;99.90
61392;DHT22;47261;52.892;5.738;2023-04-07T00:34:57;9.40;99.90
61392;DHT22;47261;52.892;5.738;2023-04-07T00:37:23;9.40;99.90
61392;DHT22;47261;52.892;5.738;2023-04-07T00:39:50;9.40;99.90
61392;DHT22;47261;52.892;5.738;2023-04-07T00:42:16;9.40;99.90
61392;DHT22;47261;52.892;5.738;2023-04-07T00:44:42;9.40;99.90
61392;DHT22;47261;52.892;5.738;2023-04-07T00:47:07;9.50;99.90
61392;DHT22;47261;52.892;5.738;2023-04-07T00:49:33;9.40;99.90
61392;DHT22;47261;52.892;5.738;2023-04-07T00:52:01;9.40;99.90
61392;DHT22;47261;52.892;5.738;2023-04-07T00:54:27;9.50;99.90
61392;DHT22;47261;52.892;5.738;2023-04-07T00:56:54;9.40;99.90
61392;DHT22;47261;52.892;5.738;2023-04-07T00:59:21;9.40;99.90
61392;DHT22;47261;52.892;5.738;2023-04-07T01:01:49;9.50;99.90
61392;DHT22;47261;52.892;5.738;2023-04-07T01:04:34;9.50;99.90
61392;DHT22;47261;52.892;5.738;2023-04-07T01:07:08;9.40;99.90
61392;DHT22;47261;52.892;5.738;2023-04-07T01:09:40;9.50;99.90
61392;DHT22;47261;52.892;5.738;2023-04-07T01:14:48;9.40;99.90
61392;DHT22;47261;52.892;5.738;2023-04-07T01:17:16;9.40;99.90
61392;DHT22;47261;52.892;5.738;2023-04-07T01:19:47;9.40;99.90
61392;DHT22;47261;52.892;5.738;2023-04-07T01:22:20;9.40;99.90
61392;DHT22;47261;52.892;5.738;2023-04-07T01:29:57;9.40;99.90
61392;DHT22;47261;52.892;5.738;2023-04-07T01:32:25;9.40;99.90
61392;DHT22;47261;52.892;5.738;2023-04-07T01:34:52;9.30;99.90
61392;DHT22;47261;52.892;5.738;2023-04-07T01:37:19;9.40;99.90
61392;DHT22;47261;52.892;5.738;2023-04-07T01:39:45;9.40;99.90
61392;DHT22;47261;52.892;5.738;2023-04-07T01:42:11;9.40;99.90
61392;DHT22;47261;52.892;5.738;2023-04-07T01:44:37;9.40;99.90
61392;DHT22;47261;52.892;5.738;2023-04-07T01:47:03;9.40;99.90
61392;DHT22;47261;52.892;5.738;2023-04-07T01:49:30;9.40;99.90
61392;DHT22;47261;52.892;5.738;2023-04-07T01:51:57;9.40;99.90
61392;DHT22;47261;52.892;5.738;2023-04-07T01:54:22;9.40;99.90
61392;DHT22;47261;52.892;5.738;2023-04-07T01:56:48;9.30;99.90
61392;DHT22;47261;52.892;5.738;2023-04-07T01:59:14;9.40;99.90
61392;DHT22;47261;52.892;5.738;2023-04-07T02:01:39;9.30;99.90
61392;DHT22;47261;52.892;5.738;2023-04-07T02:04:17;9.30;99.90
61392;DHT22;47261;52.892;5.738;2023-04-07T02:07:08;9.30;99.90
61392;DHT22;47261;52.892;5.738;2023-04-07T02:09:37;9.30;99.90
61392;DHT22;47261;52.892;5.738;2023-04-07T02:12:05;9.30;99.90
61392;DHT22;47261;52.892;5.738;2023-04-07T02:14:32;9.30;99.90
61392;DHT22;47261;52.892;5.738;2023-04-07T02:16:59;9.30;99.90
61392;DHT22;47261;52.892;5.738;2023-04-07T02:19:25;9.30;99.90
61392;DHT22;47261;52.892;5.738;2023-04-07T02:21:54;9.30;99.90
61392;DHT22;47261;52.892;5.738;2023-04-07T02:24:20;9.30;99.90
61392;DHT22;47261;52.892;5.738;2023-04-07T02:26:48;9.30;99.90
61392;DHT22;47261;52.892;5.738;2023-04-07T02:29:14;9.30;99.90
61392;DHT22;47261;52.892;5.738;2023-04-07T02:31:40;9.30;99.90
61392;DHT22;47261;52.892;5.738;2023-04-07T02:34:05;9.30;99.90
61392;DHT22;47261;52.892;5.738;2023-04-07T02:36:31;9.30;99.90
61392;DHT22;47261;52.892;5.738;2023-04-07T02:38:57;9.30;99.90
61392;DHT22;47261;52.892;5.738;2023-04-07T02:41:22;9.30;99.90
61392;DHT22;47261;52.892;5.738;2023-04-07T02:43:48;9.30;99.90
61392;DHT22;47261;52.892;5.738;2023-04-07T02:46:13;9.30;99.90
61392;DHT22;47261;52.892;5.738;2023-04-07T02:48:39;9.30;99.90
61392;DHT22;47261;52.892;5.738;2023-04-07T02:51:05;9.30;99.90
61392;DHT22;47261;52.892;5.738;2023-04-07T02:53:30;9.30;99.90
61392;DHT22;47261;52.892;5.738;2023-04-07T02:55:56;9.30;99.90
61392;DHT22;47261;52.892;5.738;2023-04-07T02:58:22;9.30;99.90
61392;DHT22;47261;52.892;5.738;2023-04-07T03:00:48;9.30;99.90
61392;DHT22;47261;52.892;5.738;2023-04-07T03:03:14;9.30;99.90
61392;DHT22;47261;52.892;5.738;2023-04-07T03:05:39;9.30;99.90
61392;DHT22;47261;52.892;5.738;2023-04-07T03:08:05;9.20;99.90
61392;DHT22;47261;52.892;5.738;2023-04-07T03:10:31;9.30;99.90
61392;DHT22;47261;52.892;5.738;2023-04-07T03:12:56;9.30;99.90
61392;DHT22;47261;52.892;5.738;2023-04-07T03:15:22;9.30;99.90
61392;DHT22;47261;52.892;5.738;2023-04-07T03:17:48;9.30;99.90
61392;DHT22;47261;52.892;5.738;2023-04-07T03:20:13;9.30;99.90
61392;DHT22;47261;52.892;5.738;2023-04-07T03:22:39;9.30;99.90
61392;DHT22;47261;52.892;5.738;2023-04-07T03:25:05;9.30;99.90
61392;DHT22;47261;52.892;5.738;2023-04-07T03:27:31;9.30;99.90
61392;DHT22;47261;52.892;5.738;2023-04-07T03:29:57;9.30;99.90
61392;DHT22;47261;52.892;5.738;2023-04-07T03:32:22;9.30;99.90
61392;DHT22;47261;52.892;5.738;2023-04-07T03:34:48;9.30;99.90
61392;DHT22;47261;52.892;5.738;2023-04-07T03:37:13;9.30;99.90
61392;DHT22;47261;52.892;5.738;2023-04-07T03:39:39;9.30;99.90
61392;DHT22;47261;52.892;5.738;2023-04-07T03:42:05;9.30;99.90
61392;DHT22;47261;52.892;5.738;2023-04-07T03:44:31;9.30;99.90
61392;DHT22;47261;52.892;5.738;2023-04-07T03:46:57;9.30;99.90
61392;DHT22;47261;52.892;5.738;2023-04-07T03:49:23;9.30;99.90
61392;DHT22;47261;52.892;5.738;2023-04-07T03:51:48;9.30;99.90
61392;DHT22;47261;52.892;5.738;2023-04-07T03:54:14;9.40;99.90
61392;DHT22;47261;52.892;5.738;2023-04-07T03:56:40;9.30;99.90
61392;DHT22;47261;52.892;5.738;2023-04-07T03:59:06;9.30;99.90
61392;DHT22;47261;52.892;5.738;2023-04-07T04:01:32;9.40;99.90
61392;DHT22;47261;52.892;5.738;2023-04-07T04:03:57;9.40;99.90
61392;DHT22;47261;52.892;5.738;2023-04-07T04:06:23;9.30;99.90
61392;DHT22;47261;52.892;5.738;2023-04-07T04:08:48;9.40;99.90
61392;DHT22;47261;52.892;5.738;2023-04-07T04:11:14;9.40;99.90
61392;DHT22;47261;52.892;5.738;2023-04-07T04:13:40;9.40;99.90
61392;DHT22;47261;52.892;5.738;2023-04-07T04:16:06;9.40;99.90
61392;DHT22;47261;52.892;5.738;2023-04-07T04:18:32;9.30;99.90
61392;DHT22;47261;52.892;5.738;2023-04-07T04:20:57;9.40;99.90
61392;DHT22;47261;52.892;5.738;2023-04-07T04:23:23;9.30;99.90
61392;DHT22;47261;52.892;5.738;2023-04-07T04:25:49;9.40;99.90
61392;DHT22;47261;52.892;5.738;2023-04-07T04:28:14;9.40;99.90
61392;DHT22;47261;52.892;5.738;2023-04-07T04:30:40;9.30;99.90
61392;DHT22;47261;52.892;5.738;2023-04-07T04:33:05;9.30;99.90
61392;DHT22;47261;52.892;5.738;2023-04-07T04:35:31;9.40;99.90
61392;DHT22;47261;52.892;5.738;2023-04-07T04:37:57;9.40;99.90
61392;DHT22;47261;52.892;5.738;2023-04-07T04:40:23;9.40;99.90
61392;DHT22;47261;52.892;5.738;2023-04-07T04:42:48;9.40;99.90
61392;DHT22;47261;52.892;5.738;2023-04-07T04:45:14;9.40;99.90
61392;DHT22;47261;52.892;5.738;2023-04-07T04:47:40;9.40;99.90
61392;DHT22;47261;52.892;5.738;2023-04-07T04:50:07;9.40;99.90
61392;DHT22;47261;52.892;5.738;2023-04-07T04:52:33;9.40;99.90
61392;DHT22;47261;52.892;5.738;2023-04-07T04:54:59;9.40;99.90
61392;DHT22;47261;52.892;5.738;2023-04-07T04:57:24;9.40;99.90
61392;DHT22;47261;52.892;5.738;2023-04-07T04:59:50;9.40;99.90
61392;DHT22;47261;52.892;5.738;2023-04-07T05:02:16;9.40;99.90
61392;DHT22;47261;52.892;5.738;2023-04-07T05:04:41;9.40;99.90
61392;DHT22;47261;52.892;5.738;2023-04-07T05:07:07;9.40;99.90
61392;DHT22;47261;52.892;5.738;2023-04-07T05:09:33;9.40;99.90
61392;DHT22;47261;52.892;5.738;2023-04-07T05:11:58;9.50;99.90
61392;DHT22;47261;52.892;5.738;2023-04-07T05:14:24;9.50;99.90
61392;DHT22;47261;52.892;5.738;2023-04-07T05:16:50;9.50;99.90
61392;DHT22;47261;52.892;5.738;2023-04-07T05:19:15;9.50;99.90
61392;DHT22;47261;52.892;5.738;2023-04-07T05:21:41;9.50;99.90
61392;DHT22;47261;52.892;5.738;2023-04-07T05:24:07;9.60;99.90
61392;DHT22;47261;52.892;5.738;2023-04-07T05:26:32;9.60;99.90
61392;DHT22;47261;52.892;5.738;2023-04-07T05:28:58;9.60;99.90
61392;DHT22;47261;52.892;5.738;2023-04-07T05:31:24;9.60;99.90
61392;DHT22;47261;52.892;5.738;2023-04-07T05:33:49;9.60;99.90
61392;DHT22;47261;52.892;5.738;2023-04-07T05:36:15;9.60;99.90
61392;DHT22;47261;52.892;5.738;2023-04-07T05:38:41;9.60;99.90
61392;DHT22;47261;52.892;5.738;2023-04-07T05:41:06;9.60;99.90
61392;DHT22;47261;52.892;5.738;2023-04-07T05:43:32;9.60;99.90
61392;DHT22;47261;52.892;5.738;2023-04-07T05:45:57;9.60;99.90
61392;DHT22;47261;52.892;5.738;2023-04-07T05:48:23;9.60;99.90
61392;DHT22;47261;52.892;5.738;2023-04-07T05:50:49;9.70;99.90
61392;DHT22;47261;52.892;5.738;2023-04-07T05:53:14;9.70;99.90
61392;DHT22;47261;52.892;5.738;2023-04-07T05:55:43;9.70;99.90
61392;DHT22;47261;52.892;5.738;2023-04-07T05:58:09;9.70;99.90
61392;DHT22;47261;52.892;5.738;2023-04-07T06:00:34;9.70;99.90
61392;DHT22;47261;52.892;5.738;2023-04-07T06:03:00;9.80;99.90
61392;DHT22;47261;52.892;5.738;2023-04-07T06:05:26;9.80;99.90
61392;DHT22;47261;52.892;5.738;2023-04-07T06:07:52;9.80;99.90
61392;DHT22;47261;52.892;5.738;2023-04-07T06:10:19;9.90;99.90
61392;DHT22;47261;52.892;5.738;2023-04-07T06:12:44;9.90;99.90
61392;DHT22;47261;52.892;5.738;2023-04-07T06:15:10;9.90;99.90
61392;DHT22;47261;52.892;5.738;2023-04-07T06:17:36;10.00;99.90
61392;DHT22;47261;52.892;5.738;2023-04-07T06:20:01;10.00;99.90
61392;DHT22;47261;52.892;5.738;2023-04-07T06:22:27;10.00;99.90
61392;DHT22;47261;52.892;5.738;2023-04-07T06:24:53;10.00;99.90
61392;DHT22;47261;52.892;5.738;2023-04-07T06:27:19;10.00;99.90
61392;DHT22;47261;52.892;5.738;2023-04-07T06:29:45;10.10;99.90
61392;DHT22;47261;52.892;5.738;2023-04-07T06:32:11;10.10;99.90
61392;DHT22;47261;52.892;5.738;2023-04-07T06:34:37;10.10;99.90
61392;DHT22;47261;52.892;5.738;2023-04-07T06:37:02;10.20;99.90
61392;DHT22;47261;52.892;5.738;2023-04-07T06:39:30;10.20;99.90
61392;DHT22;47261;52.892;5.738;2023-04-07T06:41:55;10.30;99.90
61392;DHT22;47261;52.892;5.738;2023-04-07T06:44:22;10.30;99.90
61392;DHT22;47261;52.892;5.738;2023-04-07T06:46:47;10.30;99.90
61392;DHT22;47261;52.892;5.738;2023-04-07T06:49:17;10.30;99.90
61392;DHT22;47261;52.892;5.738;2023-04-07T06:51:43;10.30;99.90
61392;DHT22;47261;52.892;5.738;2023-04-07T06:54:09;10.30;99.90
61392;DHT22;47261;52.892;5.738;2023-04-07T06:56:39;10.40;99.90
61392;DHT22;47261;52.892;5.738;2023-04-07T06:59:05;10.40;99.90
61392;DHT22;47261;52.892;5.738;2023-04-07T07:01:30;10.40;99.90
61392;DHT22;47261;52.892;5.738;2023-04-07T07:03:56;10.40;99.90
61392;DHT22;47261;52.892;5.738;2023-04-07T07:06:22;10.40;99.90
61392;DHT22;47261;52.892;5.738;2023-04-07T07:08:47;10.40;99.90
61392;DHT22;47261;52.892;5.738;2023-04-07T07:11:13;10.50;99.90
61392;DHT22;47261;52.892;5.738;2023-04-07T07:13:39;10.50;99.90
61392;DHT22;47261;52.892;5.738;2023-04-07T07:16:04;10.50;99.90
61392;DHT22;47261;52.892;5.738;2023-04-07T07:18:30;10.50;99.90
61392;DHT22;47261;52.892;5.738;2023-04-07T07:20:56;10.50;99.90
61392;DHT22;47261;52.892;5.738;2023-04-07T07:23:21;10.50;99.90
61392;DHT22;47261;52.892;5.738;2023-04-07T07:25:47;10.50;99.90
61392;DHT22;47261;52.892;5.738;2023-04-07T07:28:13;10.50;99.90
61392;DHT22;47261;52.892;5.738;2023-04-07T07:30:39;10.50;99.90
61392;DHT22;47261;52.892;5.738;2023-04-07T07:33:07;10.50;99.90
61392;DHT22;47261;52.892;5.738;2023-04-07T07:35:33;10.50;99.90
61392;DHT22;47261;52.892;5.738;2023-04-07T07:37:59;10.50;99.90
61392;DHT22;47261;52.892;5.738;2023-04-07T07:40:25;10.50;99.90
61392;DHT22;47261;52.892;5.738;2023-04-07T07:42:50;10.50;99.90
61392;DHT22;47261;52.892;5.738;2023-04-07T07:45:16;10.50;99.90
61392;DHT22;47261;52.892;5.738;2023-04-07T07:47:44;10.50;99.90
61392;DHT22;47261;52.892;5.738;2023-04-07T07:50:10;10.50;99.90
61392;DHT22;47261;52.892;5.738;2023-04-07T07:52:35;10.60;99.90
61392;DHT22;47261;52.892;5.738;2023-04-07T07:55:01;10.50;99.90
61392;DHT22;47261;52.892;5.738;2023-04-07T07:57:27;10.60;99.90
61392;DHT22;47261;52.892;5.738;2023-04-07T07:59:55;10.60;99.90
61392;DHT22;47261;52.892;5.738;2023-04-07T08:02:20;10.60;99.90
61392;DHT22;47261;52.892;5.738;2023-04-07T08:04:46;10.60;99.90
61392;DHT22;47261;52.892;5.738;2023-04-07T08:07:12;10.70;99.90
61392;DHT22;47261;52.892;5.738;2023-04-07T08:09:37;10.70;99.90
61392;DHT22;47261;52.892;5.738;2023-04-07T08:12:03;10.80;99.90
61392;DHT22;47261;52.892;5.738;2023-04-07T08:14:29;10.80;99.90
61392;DHT22;47261;52.892;5.738;2023-04-07T08:16:55;10.90;99.90
61392;DHT22;47261;52.892;5.738;2023-04-07T08:19:20;11.00;99.90
61392;DHT22;47261;52.892;5.738;2023-04-07T08:21:46;11.00;99.90
61392;DHT22;47261;52.892;5.738;2023-04-07T08:24:12;11.00;99.90
61392;DHT22;47261;52.892;5.738;2023-04-07T08:26:37;11.10;99.90
61392;DHT22;47261;52.892;5.738;2023-04-07T08:29:03;11.10;99.90
61392;DHT22;47261;52.892;5.738;2023-04-07T08:31:29;11.20;99.90
61392;DHT22;47261;52.892;5.738;2023-04-07T08:33:54;11.10;99.90
61392;DHT22;47261;52.892;5.738;2023-04-07T08:36:26;11.10;99.90
61392;DHT22;47261;52.892;5.738;2023-04-07T08:38:53;11.20;99.90
61392;DHT22;47261;52.892;5.738;2023-04-07T08:41:39;11.10;99.90
61392;DHT22;47261;52.892;5.738;2023-04-07T08:44:06;11.20;99.90
61392;DHT22;47261;52.892;5.738;2023-04-07T08:46:33;11.30;99.90
61392;DHT22;47261;52.892;5.738;2023-04-07T08:49:00;11.30;99.90
61392;DHT22;47261;52.892;5.738;2023-04-07T08:51:30;11.40;99.90
61392;DHT22;47261;52.892;5.738;2023-04-07T08:54:16;11.50;99.90
61392;DHT22;47261;52.892;5.738;2023-04-07T08:56:43;11.50;99.90
61392;DHT22;47261;52.892;5.738;2023-04-07T08:59:11;11.50;99.90
61392;DHT22;47261;52.892;5.738;2023-04-07T09:01:38;11.60;99.90
61392;DHT22;47261;52.892;5.738;2023-04-07T09:04:04;11.60;99.90
61392;DHT22;47261;52.892;5.738;2023-04-07T09:06:31;11.60;99.90
61392;DHT22;47261;52.892;5.738;2023-04-07T09:08:58;11.60;99.90
61392;DHT22;47261;52.892;5.738;2023-04-07T09:11:25;11.60;99.90
61392;DHT22;47261;52.892;5.738;2023-04-07T09:13:51;11.50;99.90
61392;DHT22;47261;52.892;5.738;2023-04-07T09:16:17;11.40;99.90
61392;DHT22;47261;52.892;5.738;2023-04-07T09:18:43;11.40;99.90
61392;DHT22;47261;52.892;5.738;2023-04-07T09:21:09;11.30;99.90
61392;DHT22;47261;52.892;5.738;2023-04-07T09:23:40;11.20;99.90
61392;DHT22;47261;52.892;5.738;2023-04-07T09:26:24;11.20;99.90
61392;DHT22;47261;52.892;5.738;2023-04-07T09:29:00;11.10;99.90
61392;DHT22;47261;52.892;5.738;2023-04-07T09:31:49;11.00;99.90
61392;DHT22;47261;52.892;5.738;2023-04-07T09:34:37;10.90;99.90
61392;DHT22;47261;52.892;5.738;2023-04-07T09:37:05;10.90;99.90
61392;DHT22;47261;52.892;5.738;2023-04-07T09:39:31;10.80;99.90
61392;DHT22;47261;52.892;5.738;2023-04-07T09:41:56;10.70;99.90
61392;DHT22;47261;52.892;5.738;2023-04-07T09:44:23;10.70;99.90
61392;DHT22;47261;52.892;5.738;2023-04-07T09:46:56;10.60;99.90
61392;DHT22;47261;52.892;5.738;2023-04-07T09:49:23;10.50;99.90
61392;DHT22;47261;52.892;5.738;2023-04-07T09:54:35;10.30;99.90
61392;DHT22;47261;52.892;5.738;2023-04-07T09:57:06;10.20;99.90
61392;DHT22;47261;52.892;5.738;2023-04-07T09:59:33;10.10;99.90
61392;DHT22;47261;52.892;5.738;2023-04-07T10:02:00;10.00;99.90
61392;DHT22;47261;52.892;5.738;2023-04-07T10:04:26;10.00;99.90
61392;DHT22;47261;52.892;5.738;2023-04-07T10:06:54;10.10;99.90
61392;DHT22;47261;52.892;5.738;2023-04-07T10:09:22;10.00;99.90
61392;DHT22;47261;52.892;5.738;2023-04-07T10:11:50;10.00;99.90
61392;DHT22;47261;52.892;5.738;2023-04-07T10:14:16;10.10;99.90
61392;DHT22;47261;52.892;5.738;2023-04-07T10:16:42;10.10;99.90
61392;DHT22;47261;52.892;5.738;2023-04-07T10:19:09;10.10;99.90
61392;DHT22;47261;52.892;5.738;2023-04-07T10:21:39;10.20;99.90
61392;DHT22;47261;52.892;5.738;2023-04-07T10:26:36;10.20;99.90
61392;DHT22;47261;52.892;5.738;2023-04-07T10:29:09;10.20;99.90
61392;DHT22;47261;52.892;5.738;2023-04-07T10:31:37;10.20;99.90
61392;DHT22;47261;52.892;5.738;2023-04-07T10:34:03;10.20;99.90
61392;DHT22;47261;52.892;5.738;2023-04-07T10:36:30;10.30;99.90
61392;DHT22;47261;52.892;5.738;2023-04-07T10:41:40;10.30;99.90
61392;DHT22;47261;52.892;5.738;2023-04-07T10:44:07;10.30;99.90
61392;DHT22;47261;52.892;5.738;2023-04-07T10:47:03;10.40;99.90
61392;DHT22;47261;52.892;5.738;2023-04-07T10:49:30;10.50;99.90
61392;DHT22;47261;52.892;5.738;2023-04-07T10:52:20;10.70;99.90
61392;DHT22;47261;52.892;5.738;2023-04-07T10:54:46;10.80;99.90
61392;DHT22;47261;52.892;5.738;2023-04-07T10:57:13;10.80;99.90
61392;DHT22;47261;52.892;5.738;2023-04-07T11:02:39;11.00;99.90
61392;DHT22;47261;52.892;5.738;2023-04-07T11:05:05;11.10;99.90
61392;DHT22;47261;52.892;5.738;2023-04-07T11:07:49;11.10;99.90
61392;DHT22;47261;52.892;5.738;2023-04-07T11:10:15;11.10;99.90
61392;DHT22;47261;52.892;5.738;2023-04-07T11:12:42;11.10;99.90
61392;DHT22;47261;52.892;5.738;2023-04-07T11:15:20;11.10;99.90
61392;DHT22;47261;52.892;5.738;2023-04-07T11:18:04;11.10;99.90
61392;DHT22;47261;52.892;5.738;2023-04-07T11:21:03;11.00;99.90
61392;DHT22;47261;52.892;5.738;2023-04-07T11:23:40;11.00;99.90
61392;DHT22;47261;52.892;5.738;2023-04-07T11:26:07;11.00;99.90
61392;DHT22;47261;52.892;5.738;2023-04-07T11:28:33;11.00;99.90
61392;DHT22;47261;52.892;5.738;2023-04-07T11:30:59;11.00;99.90
61392;DHT22;47261;52.892;5.738;2023-04-07T11:33:27;11.10;99.90
61392;DHT22;47261;52.892;5.738;2023-04-07T11:35:58;11.10;99.90
61392;DHT22;47261;52.892;5.738;2023-04-07T11:38:26;11.20;99.90
61392;DHT22;47261;52.892;5.738;2023-04-07T11:40:53;11.20;99.90
61392;DHT22;47261;52.892;5.738;2023-04-07T11:46:08;11.10;99.90
61392;DHT22;47261;52.892;5.738;2023-04-07T11:48:35;11.10;99.90
61392;DHT22;47261;52.892;5.738;2023-04-07T11:51:02;11.10;99.90
61392;DHT22;47261;52.892;5.738;2023-04-07T11:53:35;11.00;99.90
61392;DHT22;47261;52.892;5.738;2023-04-07T11:56:12;11.00;99.90
61392;DHT22;47261;52.892;5.738;2023-04-07T12:01:13;11.10;99.90
61392;DHT22;47261;52.892;5.738;2023-04-07T12:03:55;11.20;99.90
61392;DHT22;47261;52.892;5.738;2023-04-07T12:06:33;11.30;99.90
61392;DHT22;47261;52.892;5.738;2023-04-07T12:09:03;11.30;99.90
61392;DHT22;47261;52.892;5.738;2023-04-07T12:11:28;11.30;99.90
61392;DHT22;47261;52.892;5.738;2023-04-07T12:13:54;11.40;99.90
61392;DHT22;47261;52.892;5.738;2023-04-07T12:16:21;11.40;99.90
61392;DHT22;47261;52.892;5.738;2023-04-07T12:18:47;11.40;99.90
61392;DHT22;47261;52.892;5.738;2023-04-07T12:21:12;11.40;99.90
61392;DHT22;47261;52.892;5.738;2023-04-07T12:23:38;11.30;99.90
61392;DHT22;47261;52.892;5.738;2023-04-07T12:26:04;11.30;99.90
61392;DHT22;47261;52.892;5.738;2023-04-07T12:28:29;11.30;99.90
61392;DHT22;47261;52.892;5.738;2023-04-07T12:30:55;11.20;99.90
61392;DHT22;47261;52.892;5.738;2023-04-07T12:33:21;11.20;99.90
61392;DHT22;47261;52.892;5.738;2023-04-07T12:35:46;11.10;99.90
61392;DHT22;47261;52.892;5.738;2023-04-07T12:38:12;11.10;99.90
61392;DHT22;47261;52.892;5.738;2023-04-07T12:40:38;11.00;99.90
61392;DHT22;47261;52.892;5.738;2023-04-07T12:43:04;10.90;99.90
61392;DHT22;47261;52.892;5.738;2023-04-07T12:45:31;10.90;99.90
61392;DHT22;47261;52.892;5.738;2023-04-07T12:47:57;10.90;99.90
61392;DHT22;47261;52.892;5.738;2023-04-07T12:50:22;10.80;99.90
61392;DHT22;47261;52.892;5.738;2023-04-07T12:52:50;10.90;99.90
61392;DHT22;47261;52.892;5.738;2023-04-07T12:55:16;10.90;99.90
61392;DHT22;47261;52.892;5.738;2023-04-07T12:57:42;11.00;99.90
61392;DHT22;47261;52.892;5.738;2023-04-07T13:00:09;11.00;99.90
61392;DHT22;47261;52.892;5.738;2023-04-07T13:02:34;11.10;99.90
61392;DHT22;47261;52.892;5.738;2023-04-07T13:05:03;11.10;99.90
61392;DHT22;47261;52.892;5.738;2023-04-07T13:07:29;11.20;99.90
61392;DHT22;47261;52.892;5.738;2023-04-07T13:09:55;11.30;99.90
61392;DHT22;47261;52.892;5.738;2023-04-07T13:12:22;11.30;99.90
61392;DHT22;47261;52.892;5.738;2023-04-07T13:14:47;11.30;99.90
61392;DHT22;47261;52.892;5.738;2023-04-07T13:17:13;11.30;99.90
61392;DHT22;47261;52.892;5.738;2023-04-07T13:19:39;11.30;99.90
61392;DHT22;47261;52.892;5.738;2023-04-07T13:22:05;11.30;99.90
61392;DHT22;47261;52.892;5.738;2023-04-07T13:24:31;11.40;99.90
61392;DHT22;47261;52.892;5.738;2023-04-07T13:26:57;11.40;99.90
61392;DHT22;47261;52.892;5.738;2023-04-07T13:29:23;11.40;99.90
61392;DHT22;47261;52.892;5.738;2023-04-07T13:31:48;11.40;99.90
61392;DHT22;47261;52.892;5.738;2023-04-07T13:34:14;11.30;99.90
61392;DHT22;47261;52.892;5.738;2023-04-07T13:36:40;11.40;99.90
61392;DHT22;47261;52.892;5.738;2023-04-07T13:39:06;11.40;99.90
61392;DHT22;47261;52.892;5.738;2023-04-07T13:41:32;11.30;99.90
61392;DHT22;47261;52.892;5.738;2023-04-07T13:43:59;11.40;99.90
61392;DHT22;47261;52.892;5.738;2023-04-07T13:46:25;11.40;99.90
61392;DHT22;47261;52.892;5.738;2023-04-07T13:48:51;11.30;99.90
61392;DHT22;47261;52.892;5.738;2023-04-07T13:51:17;11.40;99.90
61392;DHT22;47261;52.892;5.738;2023-04-07T13:53:43;11.50;99.90
61392;DHT22;47261;52.892;5.738;2023-04-07T13:56:09;11.60;99.90
61392;DHT22;47261;52.892;5.738;2023-04-07T13:58:35;11.60;99.90
61392;DHT22;47261;52.892;5.738;2023-04-07T14:01:01;11.70;99.90
61392;DHT22;47261;52.892;5.738;2023-04-07T14:03:27;11.70;99.90
61392;DHT22;47261;52.892;5.738;2023-04-07T14:05:53;11.70;99.90
61392;DHT22;47261;52.892;5.738;2023-04-07T14:08:20;11.60;99.90
61392;DHT22;47261;52.892;5.738;2023-04-07T14:10:51;11.60;99.90
61392;DHT22;47261;52.892;5.738;2023-04-07T14:13:16;11.60;99.90
61392;DHT22;47261;52.892;5.738;2023-04-07T14:15:42;11.60;99.90
61392;DHT22;47261;52.892;5.738;2023-04-07T14:18:07;11.60;99.90
61392;DHT22;47261;52.892;5.738;2023-04-07T14:20:33;11.50;99.90
61392;DHT22;47261;52.892;5.738;2023-04-07T14:22:59;11.50;99.90
61392;DHT22;47261;52.892;5.738;2023-04-07T14:25:26;11.50;99.90
61392;DHT22;47261;52.892;5.738;2023-04-07T14:27:51;11.40;99.90
61392;DHT22;47261;52.892;5.738;2023-04-07T14:30:17;11.40;99.90
61392;DHT22;47261;52.892;5.738;2023-04-07T14:32:43;11.40;99.90
61392;DHT22;47261;52.892;5.738;2023-04-07T14:35:09;11.30;99.90
61392;DHT22;47261;52.892;5.738;2023-04-07T14:37:35;11.30;99.90
61392;DHT22;47261;52.892;5.738;2023-04-07T14:40:02;11.30;99.90
61392;DHT22;47261;52.892;5.738;2023-04-07T14:42:28;11.30;99.90
61392;DHT22;47261;52.892;5.738;2023-04-07T14:44:54;11.30;99.90
61392;DHT22;47261;52.892;5.738;2023-04-07T14:47:20;11.30;99.90
61392;DHT22;47261;52.892;5.738;2023-04-07T14:49:46;11.30;99.90
61392;DHT22;47261;52.892;5.738;2023-04-07T14:52:11;11.40;99.90
61392;DHT22;47261;52.892;5.738;2023-04-07T14:54:38;11.40;99.90
61392;DHT22;47261;52.892;5.738;2023-04-07T14:57:04;11.30;99.90
61392;DHT22;47261;52.892;5.738;2023-04-07T14:59:30;11.40;99.90
61392;DHT22;47261;52.892;5.738;2023-04-07T15:01:56;11.40;99.90
61392;DHT22;47261;52.892;5.738;2023-04-07T15:04:21;11.50;99.90
61392;DHT22;47261;52.892;5.738;2023-04-07T15:06:47;11.50;99.90
61392;DHT22;47261;52.892;5.738;2023-04-07T15:09:13;11.60;99.90
61392;DHT22;47261;52.892;5.738;2023-04-07T15:11:38;11.60;99.90
61392;DHT22;47261;52.892;5.738;2023-04-07T15:14:04;11.70;99.90
61392;DHT22;47261;52.892;5.738;2023-04-07T15:16:31;11.80;99.90
61392;DHT22;47261;52.892;5.738;2023-04-07T15:18:56;11.80;99.90
61392;DHT22;47261;52.892;5.738;2023-04-07T15:21:22;11.90;99.90
61392;DHT22;47261;52.892;5.738;2023-04-07T15:23:48;11.90;99.90
61392;DHT22;47261;52.892;5.738;2023-04-07T15:26:13;12.00;99.90
61392;DHT22;47261;52.892;5.738;2023-04-07T15:28:39;12.00;99.90
61392;DHT22;47261;52.892;5.738;2023-04-07T15:31:05;12.00;99.90
61392;DHT22;47261;52.892;5.738;2023-04-07T15:33:34;12.00;99.80
61392;DHT22;47261;52.892;5.738;2023-04-07T15:36:00;12.10;99.80
61392;DHT22;47261;52.892;5.738;2023-04-07T15:38:27;12.10;99.90
61392;DHT22;47261;52.892;5.738;2023-04-07T15:40:53;12.10;99.60
61392;DHT22;47261;52.892;5.738;2023-04-07T15:43:19;12.20;99.50
61392;DHT22;47261;52.892;5.738;2023-04-07T15:45:46;12.10;99.40
61392;DHT22;47261;52.892;5.738;2023-04-07T15:48:12;12.10;99.40
61392;DHT22;47261;52.892;5.738;2023-04-07T15:50:38;12.20;99.40
61392;DHT22;47261;52.892;5.738;2023-04-07T15:53:04;12.20;99.40
61392;DHT22;47261;52.892;5.738;2023-04-07T15:55:34;12.10;99.40
61392;DHT22;47261;52.892;5.738;2023-04-07T15:58:00;12.20;99.40
61392;DHT22;47261;52.892;5.738;2023-04-07T16:00:27;12.10;99.40